Time;durP1;ratioP1;P1;durP2;ratioP2;P2;SDS_P1;SDS_P2;PMS_P1;PMS_P2;Temp;Humidity;BMP_temperature;BMP_pressure;BME280_temperature;BME280_humidity;BME280_pressure;Samples;Min_cycle;Max_cycle;Signal;HPM_P1;HPM_P2
2022/03/11 06:27:27;;;;;;;72.45;45.72;;;25.60;2201.60;;;;;;4960661;28;20180;-85
2022/03/11 06:29:58;;;;;;;81.50;53.38;;;0.90;2201.60;;;;;;4940833;29;20469;-82
2022/03/11 06:32:30;;;;;;;76.82;50.67;;;25.90;2201.60;;;;;;4957952;29;20483;-84
2022/03/11 06:34:59;;;;;;;79.47;45.07;;;26.00;2201.60;;;;;;4940964;29;20118;-82
2022/03/11 06:37:31;;;;;;;54.10;37.25;;;26.00;2201.60;;;;;;4940489;29;20031;-86
2022/03/11 06:40:22;;;;;;;50.65;32.88;;;26.10;2201.60;;;;;;4940569;29;20023;-86
2022/03/11 06:42:49;;;;;;;44.28;30.65;;;26.20;2201.60;;;;;;4940203;29;20031;-81
2022/03/11 06:45:16;;;;;;;39.50;25.92;;;25.80;2201.60;;;;;;4940308;29;20019;-83
2022/03/11 06:47:42;;;;;;;51.38;31.08;;;26.30;2201.60;;;;;;4940769;29;20019;-85
2022/03/11 06:50:09;;;;;;;45.55;29.92;;;26.40;2201.60;;;;;;4940805;29;20082;-82
2022/03/11 06:52:35;;;;;;;38.42;25.27;;;26.40;2201.60;;;;;;4940695;29;20428;-83
2022/03/11 06:55:02;;;;;;;49.28;32.08;;;26.40;2201.60;;;;;;4940726;29;20121;-83
2022/03/11 06:57:29;;;;;;;53.83;37.95;;;26.50;2201.60;;;;;;4940633;29;20023;-80
2022/03/11 06:59:55;;;;;;;55.85;36.22;;;26.50;2201.60;;;;;;4939975;29;20059;-76
2022/03/11 07:02:21;;;;;;;78.18;47.00;;;26.50;2201.60;;;;;;4940436;29;20031;-82
2022/03/11 07:04:46;;;;;;;58.95;36.22;;;51.20;2227.20;;;;;;4940120;29;20038;-82
2022/03/11 07:07:15;;;;;;;44.65;32.63;;;51.30;2227.20;;;;;;4940284;29;20033;-84
2022/03/11 07:09:41;;;;;;;44.25;29.95;;;51.30;2227.20;;;;;;4940480;29;20564;-83
2022/03/11 07:12:07;;;;;;;54.72;36.20;;;51.40;2227.20;;;;;;4940412;29;20110;-84
2022/03/11 07:14:35;;;;;;;76.70;48.33;;;51.30;2227.20;;;;;;4940421;29;20027;-84
2022/03/11 07:17:02;;;;;;;76.93;47.88;;;51.70;2227.20;;;;;;4940070;29;20126;-76
2022/03/11 07:19:28;;;;;;;56.65;38.55;;;51.20;2227.20;;;;;;4939725;29;20027;-80
2022/03/11 07:21:58;;;;;;;60.47;39.85;;;26.50;2201.60;;;;;;4939919;29;20030;-77
2022/03/11 07:24:24;;;;;;;61.45;43.30;;;51.20;2227.20;;;;;;4939881;29;20027;-75
2022/03/11 07:30:30;;;;;;;71.25;44.33;;;26.50;2201.60;;;;;;4956953;29;20030;-84
2022/03/11 07:33:06;;;;;;;54.47;39.33;;;26.50;2201.60;;;;;;4939497;29;20491;-83
2022/03/11 07:46:27;;;;;;;46.47;29.75;;;26.40;2201.60;;;;;;4956974;28;20440;-85
2022/03/11 08:14:05;;;;;;;28.13;20.45;;;51.70;2227.20;;;;;;4972363;28;20045;-86
2022/03/11 08:26:47;;;;;;;36.65;24.55;;;51.60;2227.20;;;;;;4897190;29;20031;-84
2022/03/11 08:30:07;;;;;;;39.83;23.48;;;51.80;2227.20;;;;;;4880978;29;20431;-85
2022/03/11 08:50:03;;;;;;;52.05;32.97;;;77.30;2227.20;;;;;;4750728;30;20039;-83
2022/03/11 08:52:30;;;;;;;36.75;25.08;;;77.20;2227.20;;;;;;4789094;29;20110;-82
2022/03/11 08:54:57;;;;;;;47.92;36.42;;;77.20;2227.20;;;;;;4898362;29;20036;-84
2022/03/11 08:57:23;;;;;;;44.80;31.52;;;77.00;2227.20;;;;;;4956743;28;20037;-85
2022/03/11 08:59:49;;;;;;;44.97;31.63;;;76.80;2227.20;;;;;;4973782;28;20460;-85
2022/03/11 09:02:16;;;;;;;46.95;32.42;;;76.80;2227.20;;;;;;4973792;28;20023;-85
2022/03/11 09:04:43;;;;;;;34.80;22.85;;;52.10;2227.20;;;;;;4973282;28;20015;-82
2022/03/11 09:07:09;;;;;;;46.63;29.23;;;52.00;2227.20;;;;;;4973704;28;20411;-84
2022/03/11 09:09:36;;;;;;;39.95;27.70;;;52.00;2227.20;;;;;;4954723;28;20089;-82
2022/03/11 09:12:03;;;;;;;40.45;29.35;;;52.00;2227.20;;;;;;4953551;29;20039;-82
2022/03/11 09:14:30;;;;;;;40.97;29.60;;;52.00;2227.20;;;;;;4954236;29;20114;-83
2022/03/11 09:16:57;;;;;;;30.25;19.90;;;52.10;2227.20;;;;;;4954411;29;20122;-84
2022/03/11 09:19:23;;;;;;;33.28;24.60;;;52.00;2227.20;;;;;;4954142;29;20520;-83
2022/03/11 09:21:48;;;;;;;31.63;22.17;;;52.00;2227.20;;;;;;4954017;28;20071;-84
2022/03/11 09:24:14;;;;;;;46.83;29.17;;;52.00;2227.20;;;;;;4957480;29;20365;-82
2022/03/11 09:26:40;;;;;;;27.77;20.05;;;52.10;2227.20;;;;;;4957755;29;20465;-83
2022/03/11 09:29:06;;;;;;;47.95;30.63;;;51.80;2227.20;;;;;;4961596;28;20038;-84
2022/03/11 09:31:34;;;;;;;30.77;18.55;;;52.10;2227.20;;;;;;4964737;28;20408;-86
2022/03/11 09:34:00;;;;;;;30.05;22.85;;;52.10;2227.20;;;;;;4961073;28;20018;-85
2022/03/11 09:36:26;;;;;;;28.20;23.27;;;52.10;2227.20;;;;;;4961099;28;20030;-85
2022/03/11 09:38:52;;;;;;;31.08;22.33;;;52.00;2227.20;;;;;;4971670;28;20038;-84
2022/03/11 09:41:20;;;;;;;33.38;24.63;;;52.10;2227.20;;;;;;4977169;28;20113;-83
2022/03/11 09:43:49;;;;;;;38.92;26.65;;;52.10;2227.20;;;;;;4977264;28;20109;-84
2022/03/11 09:46:15;;;;;;;42.58;28.67;;;76.80;2227.20;;;;;;4976866;28;20023;-83
2022/03/11 09:48:42;;;;;;;39.00;24.83;;;76.80;2227.20;;;;;;4978241;28;20030;-82
2022/03/11 09:51:10;;;;;;;37.22;23.50;;;76.90;2227.20;;;;;;4976801;28;20372;-82
2022/03/11 09:53:36;;;;;;;47.10;29.52;;;77.00;2227.20;;;;;;4977771;28;20022;-82
2022/03/11 09:56:03;;;;;;;37.38;25.50;;;76.90;2227.20;;;;;;4976757;28;20118;-83
2022/03/11 09:58:29;;;;;;;47.90;32.05;;;76.90;2227.20;;;;;;4976708;28;20130;-82
2022/03/11 10:00:55;;;;;;;37.45;24.95;;;77.10;2227.20;;;;;;4977656;28;20106;-82
2022/03/11 10:03:24;;;;;;;49.38;30.13;;;77.20;2227.20;;;;;;4976611;28;20520;-84
2022/03/11 10:05:54;;;;;;;35.47;24.17;;;77.10;2227.20;;;;;;4963607;28;20094;-84
2022/03/11 10:08:40;;;;;;;42.50;29.55;;;77.20;2227.20;;;;;;4960102;28;20019;-83
2022/03/11 10:11:18;;;;;;;35.78;23.50;;;77.10;2227.20;;;;;;4960283;28;20089;-83
2022/03/11 10:13:44;;;;;;;38.67;28.30;;;76.90;2227.20;;;;;;4959974;28;20081;-83
2022/03/11 10:16:25;;;;;;;79.93;52.85;;;76.90;2227.20;;;;;;4958565;28;20022;-81
2022/03/11 10:18:59;;;;;;;50.85;30.58;;;77.20;2227.20;;;;;;4960188;28;20070;-83
2022/03/11 10:21:39;;;;;;;30.55;20.45;;;77.10;2227.20;;;;;;4959651;28;20110;-84
2022/03/11 10:24:08;;;;;;;40.75;26.42;;;77.30;2227.20;;;;;;4960172;28;20118;-81
2022/03/11 10:26:44;;;;;;;32.00;22.35;;;77.40;2227.20;;;;;;4960151;28;20037;-80
2022/03/11 10:29:12;;;;;;;35.75;26.38;;;77.60;2227.20;;;;;;4959939;28;20044;-81
2022/03/11 10:31:40;;;;;;;34.30;23.20;;;77.70;2227.20;;;;;;4960293;28;20483;-79
2022/03/11 10:34:20;;;;;;;28.27;20.67;;;102.40;2227.20;;;;;;4959542;28;20058;-75
2022/03/11 10:36:54;;;;;;;43.55;29.65;;;102.60;2227.20;;;;;;4959581;28;20465;-76
2022/03/11 10:39:41;;;;;;;39.42;26.48;;;102.70;2227.20;;;;;;4960909;28;20471;-77
2022/03/11 10:42:24;;;;;;;29.98;23.08;;;102.80;2227.20;;;;;;4964941;28;20023;-80
2022/03/11 10:44:56;;;;;;;32.05;22.25;;;102.80;2227.20;;;;;;4977624;28;20105;-76
2022/03/11 10:47:33;;;;;;;42.35;26.27;;;102.70;2227.20;;;;;;4960161;28;20114;-82
2022/03/11 10:50:02;;;;;;;57.53;32.97;;;102.60;2227.20;;;;;;4959674;28;20081;-78
2022/03/11 10:52:48;;;;;;;45.90;31.05;;;102.60;2227.20;;;;;;4959769;28;20027;-78
2022/03/11 10:55:29;;;;;;;33.83;22.73;;;102.60;2227.20;;;;;;4959535;28;20058;-79
2022/03/11 10:57:56;;;;;;;58.97;36.00;;;102.50;2227.20;;;;;;4959344;28;20025;-78
2022/03/11 11:00:27;;;;;;;25.85;17.85;;;102.60;2227.20;;;;;;4959572;28;20027;-79
2022/03/11 11:03:04;;;;;;;25.50;17.67;;;102.80;2227.20;;;;;;4976300;28;20023;-80
2022/03/11 11:05:31;;;;;;;22.75;15.65;;;103.00;2176.00;;;;;;4959553;28;20034;-81
2022/03/11 11:07:59;;;;;;;22.35;15.45;;;102.80;2150.40;;;;;;4976775;28;20051;-81
2022/03/11 11:10:29;;;;;;;29.80;18.92;;;102.80;2176.00;;;;;;4959055;28;20396;-77
2022/03/11 11:12:55;;;;;;;24.77;16.65;;;102.60;2176.00;;;;;;4955703;29;20059;-78
2022/03/11 11:15:21;;;;;;;19.42;13.88;;;102.60;2227.20;;;;;;4955786;29;20034;-78
2022/03/11 11:17:49;;;;;;;26.35;16.40;;;102.60;2176.00;;;;;;4955809;29;20023;-79
2022/03/11 11:20:33;;;;;;;25.75;18.90;;;102.70;2227.20;;;;;;4955672;29;20117;-79
2022/03/11 11:23:04;;;;;;;28.33;18.90;;;103.20;2227.20;;;;;;4955888;29;20027;-80
2022/03/11 11:25:31;;;;;;;33.65;22.25;;;103.00;2227.20;;;;;;4955399;29;20026;-79
2022/03/11 11:28:00;;;;;;;25.73;18.55;;;102.80;2227.20;;;;;;4955348;29;20054;-79
2022/03/11 11:30:26;;;;;;;39.35;28.65;;;102.90;2227.20;;;;;;4955451;29;20070;-76
2022/03/11 11:32:54;;;;;;;32.47;22.23;;;103.30;2227.20;;;;;;4955494;29;20035;-79
2022/03/11 11:35:33;;;;;;;37.47;26.15;;;128.30;2252.80;;;;;;4955484;29;20110;-78
2022/03/11 11:38:01;;;;;;;26.60;18.58;;;128.70;2227.20;;;;;;4955107;29;20037;-79
2022/03/11 11:40:35;;;;;;;37.70;26.58;;;128.90;2099.20;;;;;;4955320;29;20350;-79
2022/03/11 11:43:28;;;;;;;32.78;23.73;;;128.90;2201.60;;;;;;4956731;28;20034;-79
2022/03/11 11:46:10;;;;;;;30.58;19.65;;;128.40;2227.20;;;;;;4954177;28;20027;-78
2022/03/11 11:48:42;;;;;;;42.33;29.30;;;128.00;2227.20;;;;;;4955322;29;20039;-78
2022/03/11 11:51:13;;;;;;;23.50;15.48;;;128.80;2176.00;;;;;;4955435;29;20118;-76
2022/03/11 11:53:57;;;;;;;27.95;21.20;;;153.70;2048.00;;;;;;4954819;29;20031;-80
2022/03/11 11:56:37;;;;;;;45.75;32.00;;;154.20;2124.80;;;;;;4955150;29;20069;-78
2022/03/11 11:59:10;;;;;;;43.20;33.55;;;179.20;2124.80;;;;;;4955208;29;20464;-77
2022/03/11 12:01:36;;;;;;;;;;;179.60;2099.20;;;;;;4955968;29;20078;-81
2022/03/11 12:04:20;;;;;;;67.82;42.58;;;179.30;2073.60;;;;;;4955569;29;19902;-80
2022/03/11 12:07:13;;;;;;;36.13;25.15;;;179.40;2048.00;;;;;;4955134;29;20452;-82
2022/03/11 12:09:39;;;;;;;38.67;21.20;;;154.50;2099.20;;;;;;4955068;29;20042;-78
2022/03/11 12:12:05;;;;;;;32.40;22.25;;;179.40;2022.40;;;;;;4945602;29;20050;-77
2022/03/11 12:14:32;;;;;;;34.28;24.25;;;179.80;1996.80;;;;;;4937013;29;20023;-80
2022/03/11 12:17:07;;;;;;;30.50;21.45;;;180.00;2073.60;;;;;;4935849;29;20075;-78
2022/03/11 12:19:41;;;;;;;37.45;25.58;;;204.80;2022.40;;;;;;4937044;29;20027;-79
2022/03/11 12:22:33;;;;;;;36.08;25.77;;;205.00;2022.40;;;;;;4919870;29;20034;-79
2022/03/11 12:25:03;;;;;;;33.03;23.88;;;204.80;1971.20;;;;;;4937034;29;20098;-76
2022/03/11 12:28:00;;;;;;;33.95;23.55;;;205.20;1996.80;;;;;;4935423;29;20030;-78
2022/03/11 12:30:40;;;;;;;31.30;20.75;;;205.00;1945.60;;;;;;4936697;29;20031;-80
2022/03/11 12:33:13;;;;;;;32.67;20.73;;;179.90;2048.00;;;;;;4937039;29;20025;-81
2022/03/11 12:35:39;;;;;;;29.05;20.55;;;205.00;1996.80;;;;;;4935157;29;20035;-77
2022/03/11 12:38:11;;;;;;;38.63;27.60;;;205.40;2022.40;;;;;;4935425;29;20081;-77
2022/03/11 12:40:36;;;;;;;26.95;17.48;;;205.50;1920.00;;;;;;4936328;29;20114;-76
2022/03/11 12:43:04;;;;;;;37.83;22.77;;;205.50;1920.00;;;;;;4934992;29;20558;-78
2022/03/11 12:45:42;;;;;;;39.38;24.58;;;205.30;1945.60;;;;;;4935291;29;20028;-77
2022/03/11 12:48:12;;;;;;;35.78;22.42;;;205.30;1920.00;;;;;;4919321;29;20035;-78
2022/03/11 12:50:39;;;;;;;33.97;22.92;;;205.40;1894.40;;;;;;4936421;29;20484;-76
2022/03/11 12:53:07;;;;;;;38.63;22.95;;;205.00;1920.00;;;;;;4935191;29;20034;-76
2022/03/11 12:55:34;;;;;;;27.02;19.02;;;204.80;1920.00;;;;;;4934871;29;20027;-79
2022/03/11 12:58:02;;;;;;;28.77;21.45;;;205.10;1894.40;;;;;;4936333;29;20438;-77
2022/03/11 13:00:31;;;;;;;39.33;24.38;;;179.90;1945.60;;;;;;4935116;29;20032;-74
2022/03/11 13:02:58;;;;;;;39.47;22.90;;;179.60;1920.00;;;;;;4935916;29;20027;-78
2022/03/11 13:05:27;;;;;;;24.58;16.45;;;154.40;1920.00;;;;;;4935061;29;20425;-79
2022/03/11 13:07:59;;;;;;;29.48;19.65;;;153.80;1920.00;;;;;;4919431;29;20475;-80
2022/03/11 13:10:26;;;;;;;33.83;23.02;;;128.90;2048.00;;;;;;4936237;29;20028;-73
2022/03/11 13:12:54;;;;;;;34.78;23.88;;;128.80;2099.20;;;;;;4934917;29;20463;-74
2022/03/11 13:15:22;;;;;;;26.27;17.83;;;153.90;1971.20;;;;;;4935071;29;20031;-77
2022/03/11 13:17:51;;;;;;;28.88;17.55;;;154.50;1843.20;;;;;;4936070;29;20043;-75
2022/03/11 13:20:41;;;;;;;46.53;27.00;;;154.00;1894.40;;;;;;4936235;29;20050;-75
2022/03/11 13:23:22;;;;;;;32.47;20.67;;;153.80;1971.20;;;;;;4935699;29;20083;-73
2022/03/11 13:25:53;;;;;;;28.40;18.10;;;154.30;1868.80;;;;;;4939177;29;20454;-77
2022/03/11 13:28:22;;;;;;;25.25;17.00;;;179.30;1868.80;;;;;;4935754;29;20075;-79
2022/03/11 13:30:49;;;;;;;20.50;13.63;;;179.70;1868.80;;;;;;4935015;29;20082;-74
2022/03/11 13:33:26;;;;;;;18.08;12.20;;;179.90;1792.00;;;;;;4934542;29;20023;-72
2022/03/11 13:36:11;;;;;;;20.08;13.10;;;179.50;1817.60;;;;;;4934695;29;20051;-75
2022/03/11 13:38:44;;;;;;;23.88;15.90;;;154.40;1894.40;;;;;;4934528;29;20024;-74
2022/03/11 13:41:32;;;;;;;40.08;29.63;;;179.70;1792.00;;;;;;4934044;29;20023;-74
2022/03/11 13:44:00;;;;;;;20.33;14.90;;;180.10;1894.40;;;;;;4935682;29;20111;-74
2022/03/11 13:46:32;;;;;;;29.45;20.88;;;179.80;1792.00;;;;;;4934664;29;20023;-79
2022/03/11 13:49:00;;;;;;;27.20;17.33;;;179.20;1945.60;;;;;;4934433;29;20106;-79
2022/03/11 13:52:03;;;;;;;29.70;21.60;;;179.20;1920.00;;;;;;4934782;29;20386;-82
2022/03/11 13:54:31;;;;;;;43.45;28.92;;;154.10;1971.20;;;;;;4895639;29;20036;-82
2022/03/11 13:56:59;;;;;;;36.70;25.10;;;153.80;2073.60;;;;;;4934887;29;20032;-84
2022/03/11 13:59:34;;;;;;;50.97;32.53;;;128.90;2073.60;;;;;;4918852;29;20024;-80
2022/03/11 14:02:29;;;;;;;56.70;37.35;;;128.70;2073.60;;;;;;4934238;29;20030;-80
2022/03/11 14:05:21;;;;;;;56.30;37.05;;;128.30;2099.20;;;;;;4932757;29;20430;-80
2022/03/11 14:07:55;;;;;;;45.35;29.10;;;128.10;2099.20;;;;;;4918679;29;20079;-81
2022/03/11 14:10:24;;;;;;;50.58;32.03;;;128.10;2150.40;;;;;;4937736;29;20087;-79
2022/03/11 14:13:04;;;;;;;50.55;32.90;;;128.20;2099.20;;;;;;4952149;28;20047;-80
2022/03/11 14:15:50;;;;;;;43.22;28.25;;;103.30;2124.80;;;;;;4960281;28;20475;-80
2022/03/11 14:18:22;;;;;;;53.17;35.08;;;103.20;2073.60;;;;;;4959784;28;20037;-77
2022/03/11 14:20:48;;;;;;;129.25;40.38;;;103.30;2099.20;;;;;;4960759;28;20468;-84
2022/03/11 14:23:14;;;;;;;71.95;40.45;;;128.20;2124.80;;;;;;4992523;28;20057;-80
2022/03/11 14:25:41;;;;;;;43.97;30.35;;;128.50;2150.40;;;;;;4992534;28;20082;-81
2022/03/11 14:28:07;;;;;;;40.53;26.52;;;128.40;2150.40;;;;;;4960388;28;20023;-80
2022/03/11 14:30:37;;;;;;;42.08;28.83;;;128.10;2176.00;;;;;;4991934;28;20089;-82
2022/03/11 14:33:06;;;;;;;55.83;32.97;;;103.20;2176.00;;;;;;4960083;28;20027;-81
2022/03/11 14:35:35;;;;;;;62.33;36.05;;;128.00;2201.60;;;;;;4992611;28;20022;-83
2022/03/11 14:38:05;;;;;;;55.42;34.55;;;103.00;2201.60;;;;;;4992430;28;20026;-82
2022/03/11 14:40:35;;;;;;;45.80;29.73;;;102.80;2227.20;;;;;;4959949;28;20015;-80
2022/03/11 14:43:02;;;;;;;52.00;31.67;;;102.80;2227.20;;;;;;4977420;28;20066;-82
2022/03/11 14:45:29;;;;;;;64.93;40.42;;;102.70;2227.20;;;;;;4959507;28;20042;-83
2022/03/11 14:47:55;;;;;;;42.92;29.08;;;102.70;2227.20;;;;;;4959452;28;20027;-83
2022/03/11 14:50:21;;;;;;;44.17;28.50;;;102.60;2227.20;;;;;;4959737;28;20139;-81
2022/03/11 14:52:48;;;;;;;60.33;36.67;;;102.50;2227.20;;;;;;4960152;28;20018;-82
2022/03/11 14:55:16;;;;;;;64.70;44.63;;;102.50;2227.20;;;;;;4959725;28;20018;-83
2022/03/11 14:57:44;;;;;;;64.68;46.55;;;102.40;2227.20;;;;;;4959566;28;20026;-81
2022/03/11 15:00:13;;;;;;;44.63;27.48;;;102.40;2227.20;;;;;;4959467;28;20384;-81
2022/03/11 15:02:57;;;;;;;66.40;40.55;;;77.70;2227.20;;;;;;4959711;28;20034;-81
2022/03/11 15:05:23;;;;;;;40.33;26.67;;;102.50;2227.20;;;;;;4991581;28;20029;-80
2022/03/11 15:07:49;;;;;;;52.20;29.48;;;102.40;2227.20;;;;;;4992377;28;20022;-80
2022/03/11 15:10:16;;;;;;;58.45;35.03;;;102.50;2227.20;;;;;;4992147;28;20122;-81
2022/03/11 15:12:55;;;;;;;46.67;28.45;;;102.50;2227.20;;;;;;4991224;28;20125;-82
2022/03/11 15:15:21;;;;;;;78.50;41.00;;;77.70;2227.20;;;;;;4991557;28;20026;-83
2022/03/11 15:17:47;;;;;;;75.30;43.30;;;77.70;2227.20;;;;;;4959416;28;20025;-82
2022/03/11 15:20:14;;;;;;;68.88;40.72;;;77.70;2227.20;;;;;;4991601;28;20023;-83
2022/03/11 15:22:40;;;;;;;50.40;32.75;;;77.70;2227.20;;;;;;4959157;28;20081;-84
2022/03/11 15:25:07;;;;;;;62.78;37.83;;;77.60;2227.20;;;;;;4959321;28;20023;-82
2022/03/11 15:27:41;;;;;;;60.90;37.63;;;77.60;2227.20;;;;;;4959373;28;20113;-84
2022/03/11 15:30:09;;;;;;;53.97;31.80;;;77.70;2227.20;;;;;;4958603;28;20041;-82
2022/03/11 15:32:35;;;;;;;77.18;40.78;;;77.50;2227.20;;;;;;4957948;28;20585;-82
2022/03/11 15:35:02;;;;;;;46.10;27.50;;;77.60;2227.20;;;;;;4991545;28;20069;-83
2022/03/11 15:37:33;;;;;;;50.25;29.55;;;77.50;2201.60;;;;;;4958840;28;20539;-82
2022/03/11 15:40:02;;;;;;;83.82;46.42;;;77.40;2227.20;;;;;;4991183;28;20061;-82
2022/03/11 15:42:31;;;;;;;66.55;43.70;;;77.50;2227.20;;;;;;4958549;28;20455;-85
2022/03/11 15:44:57;;;;;;;50.72;31.30;;;77.50;2227.20;;;;;;4991308;28;20061;-83
2022/03/11 15:47:29;;;;;;;111.90;57.58;;;77.50;2227.20;;;;;;4991289;28;20050;-84
2022/03/11 15:50:20;;;;;;;135.27;71.85;;;77.60;2227.20;;;;;;4991298;28;20027;-86
2022/03/11 15:52:50;;;;;;;74.15;50.90;;;77.50;2227.20;;;;;;4948607;28;20111;-82
2022/03/11 15:55:18;;;;;;;83.50;48.28;;;77.70;2227.20;;;;;;4957869;28;20503;-84
2022/03/11 15:57:46;;;;;;;94.18;52.75;;;77.50;2227.20;;;;;;4958642;28;20472;-84
2022/03/11 16:00:14;;;;;;;82.25;45.95;;;77.50;2227.20;;;;;;4958686;28;20349;-84
2022/03/11 16:02:41;;;;;;;97.70;53.85;;;77.60;2227.20;;;;;;4958879;28;20026;-82
2022/03/11 16:05:20;;;;;;;69.63;41.90;;;77.50;2227.20;;;;;;4962892;28;20015;-83
2022/03/11 16:07:52;;;;;;;75.18;44.55;;;77.40;2227.20;;;;;;4977756;28;20027;-86
2022/03/11 16:10:28;;;;;;;57.65;35.80;;;77.50;2227.20;;;;;;4991455;28;20031;-84
2022/03/11 16:12:55;;;;;;;93.25;57.25;;;77.50;2227.20;;;;;;4958869;28;20038;-86
2022/03/11 16:15:22;;;;;;;100.53;58.03;;;77.50;2227.20;;;;;;4957968;28;20026;-85
2022/03/11 16:17:49;;;;;;;76.07;45.35;;;77.50;2227.20;;;;;;4958209;28;20018;-85
2022/03/11 16:20:15;;;;;;;81.55;51.20;;;77.50;2227.20;;;;;;4990961;28;20075;-86
2022/03/11 16:22:41;;;;;;;42.53;28.30;;;77.50;2227.20;;;;;;4990827;28;20042;-86
2022/03/11 16:25:07;;;;;;;37.22;23.60;;;77.40;2227.20;;;;;;4975416;28;20026;-85
2022/03/11 16:27:34;;;;;;;58.30;52.42;;;77.40;2227.20;;;;;;4958673;28;20468;-86
2022/03/11 16:30:01;;;;;;;48.97;37.25;;;77.30;2227.20;;;;;;4958258;28;20026;-86
2022/03/11 16:32:29;;;;;;;47.00;29.80;;;77.40;2227.20;;;;;;4957704;28;20026;-81
2022/03/11 16:34:55;;;;;;;61.05;35.55;;;77.40;2227.20;;;;;;4990380;28;20069;-81
2022/03/11 16:37:21;;;;;;;63.47;36.40;;;77.40;2227.20;;;;;;4974957;28;20417;-85
2022/03/11 16:39:48;;;;;;;45.67;27.05;;;77.40;2227.20;;;;;;4975327;28;20101;-83
2022/03/11 16:42:14;;;;;;;33.22;20.50;;;77.30;2227.20;;;;;;4957904;28;20452;-82
2022/03/11 16:44:39;;;;;;;28.95;19.38;;;77.30;2227.20;;;;;;4975676;28;20026;-85
2022/03/11 16:47:09;;;;;;;38.40;25.27;;;77.20;2227.20;;;;;;4990406;28;20022;-84
2022/03/11 16:49:40;;;;;;;80.53;48.67;;;77.10;2227.20;;;;;;4957981;28;20026;-86
2022/03/11 16:52:07;;;;;;;94.55;54.10;;;77.00;2227.20;;;;;;4958003;28;20122;-85
2022/03/11 16:54:33;;;;;;;51.65;31.75;;;77.00;2227.20;;;;;;4975300;28;20467;-84
2022/03/11 16:56:59;;;;;;;66.38;35.67;;;77.00;2227.20;;;;;;4990205;28;20031;-85
2022/03/11 16:59:25;;;;;;;73.32;46.45;;;76.90;2227.20;;;;;;4975268;28;20054;-84
2022/03/11 17:01:51;;;;;;;71.78;47.25;;;76.90;2227.20;;;;;;4975149;28;20030;-83
2022/03/11 17:04:17;;;;;;;77.95;48.13;;;76.80;2227.20;;;;;;4989587;28;20019;-85
2022/03/11 17:06:43;;;;;;;78.72;49.30;;;76.80;2227.20;;;;;;4958164;28;20364;-85
2022/03/11 17:09:13;;;;;;;99.43;63.05;;;76.80;2227.20;;;;;;4990430;28;20033;-84
2022/03/11 17:11:43;;;;;;;78.82;47.35;;;76.80;2227.20;;;;;;4957438;28;20055;-83
2022/03/11 17:14:10;;;;;;;81.30;48.45;;;76.80;2227.20;;;;;;4974992;28;20364;-79
2022/03/11 17:16:37;;;;;;;88.13;52.25;;;76.90;2227.20;;;;;;4957501;28;20470;-81
2022/03/11 17:19:04;;;;;;;69.45;44.35;;;76.90;2227.20;;;;;;4957396;28;20054;-82
2022/03/11 17:21:30;;;;;;;77.78;47.60;;;76.90;2227.20;;;;;;4956781;28;20536;-82
2022/03/11 17:23:57;;;;;;;176.15;90.70;;;76.80;2227.20;;;;;;4989523;28;20480;-80
2022/03/11 17:26:24;;;;;;;113.88;62.47;;;76.80;2227.20;;;;;;4957277;28;20034;-81
2022/03/11 17:28:50;;;;;;;88.78;53.20;;;76.80;2227.20;;;;;;4957123;28;20022;-79
2022/03/11 17:31:16;;;;;;;84.05;49.72;;;52.10;2227.20;;;;;;4957235;28;20027;-81
2022/03/11 17:33:42;;;;;;;73.88;46.40;;;76.80;2227.20;;;;;;4957481;28;20110;-79
2022/03/11 17:36:11;;;;;;;104.28;58.40;;;76.80;2227.20;;;;;;4957398;28;20364;-80
2022/03/11 17:38:42;;;;;;;90.50;50.17;;;52.10;2227.20;;;;;;4957157;28;20026;-80
2022/03/11 17:41:08;;;;;;;101.90;52.90;;;52.00;2227.20;;;;;;4957453;28;20023;-81
2022/03/11 17:43:35;;;;;;;69.43;42.53;;;52.00;2227.20;;;;;;4990079;28;20027;-79
2022/03/11 17:46:02;;;;;;;96.03;54.70;;;77.20;2227.20;;;;;;4960869;28;20030;-84
2022/03/11 17:48:28;;;;;;;138.73;78.63;;;52.00;2227.20;;;;;;4960174;28;20341;-84
2022/03/11 17:50:54;;;;;;;137.15;74.20;;;52.00;2227.20;;;;;;4992867;28;20102;-78
2022/03/11 17:53:20;;;;;;;74.35;49.55;;;76.80;2227.20;;;;;;4991915;28;20170;-80
2022/03/11 17:55:46;;;;;;;70.05;51.17;;;52.10;2227.20;;;;;;4993003;28;20054;-76
2022/03/11 17:58:13;;;;;;;117.97;66.43;;;52.10;2227.20;;;;;;4992622;28;20082;-81
2022/03/11 18:00:40;;;;;;;162.57;87.20;;;52.10;2227.20;;;;;;4960108;28;20031;-80
2022/03/11 18:03:07;;;;;;;191.57;98.28;;;52.10;2227.20;;;;;;4960641;28;20027;-81
2022/03/11 18:05:33;;;;;;;164.52;86.88;;;52.10;2227.20;;;;;;4992848;28;20019;-77
2022/03/11 18:07:59;;;;;;;184.50;98.57;;;52.10;2227.20;;;;;;4992785;28;20023;-76
2022/03/11 18:10:25;;;;;;;126.65;67.70;;;52.10;2227.20;;;;;;4992472;28;20496;-79
2022/03/11 18:12:50;;;;;;;133.93;83.20;;;52.10;2227.20;;;;;;4992139;28;20102;-80
2022/03/11 18:15:16;;;;;;;163.93;114.53;;;52.00;2227.20;;;;;;4960212;28;20023;-80
2022/03/11 18:17:42;;;;;;;125.45;79.40;;;52.00;2227.20;;;;;;4977563;28;20098;-79
2022/03/11 18:20:10;;;;;;;124.03;83.53;;;51.80;2227.20;;;;;;4960522;28;20033;-80
2022/03/11 18:22:39;;;;;;;144.65;81.60;;;51.80;2227.20;;;;;;4977087;28;20054;-80
2022/03/11 18:25:07;;;;;;;153.25;81.50;;;51.80;2227.20;;;;;;4977215;28;20027;-82
2022/03/11 18:27:34;;;;;;;135.52;73.82;;;51.80;2227.20;;;;;;4959913;28;20038;-78
2022/03/11 18:30:01;;;;;;;121.20;62.03;;;51.70;2227.20;;;;;;4960284;28;20460;-81
2022/03/11 18:32:26;;;;;;;79.72;44.55;;;51.80;2227.20;;;;;;4960423;28;20022;-81
2022/03/11 18:34:54;;;;;;;75.85;39.38;;;51.60;2227.20;;;;;;4992311;28;20033;-83
2022/03/11 18:37:20;;;;;;;63.60;38.13;;;51.60;2227.20;;;;;;4960118;28;20029;-82
2022/03/11 18:39:46;;;;;;;52.25;31.08;;;51.60;2227.20;;;;;;4977519;28;20030;-84
2022/03/11 18:42:12;;;;;;;61.95;39.47;;;51.60;2227.20;;;;;;4959843;28;20364;-84
2022/03/11 18:44:38;;;;;;;58.33;36.42;;;51.60;2227.20;;;;;;4959297;28;20027;-83
2022/03/11 18:47:04;;;;;;;67.88;42.55;;;51.60;2227.20;;;;;;4976923;28;20027;-82
2022/03/11 18:49:31;;;;;;;76.68;45.92;;;51.60;2227.20;;;;;;4991915;28;20034;-83
2022/03/11 18:51:58;;;;;;;67.53;39.92;;;51.50;2227.20;;;;;;4992394;28;20027;-84
2022/03/11 18:54:24;;;;;;;59.70;36.45;;;51.40;2227.20;;;;;;4959345;28;20023;-84
2022/03/11 18:56:50;;;;;;;76.85;40.13;;;51.30;2227.20;;;;;;4992022;28;20034;-82
2022/03/11 18:59:15;;;;;;;76.57;39.40;;;51.40;2227.20;;;;;;4959914;28;20475;-83
2022/03/11 19:01:42;;;;;;;82.07;40.53;;;51.30;2227.20;;;;;;4959799;28;20109;-83
2022/03/11 19:04:08;;;;;;;86.25;41.95;;;51.40;2227.20;;;;;;4991805;28;20027;-83
2022/03/11 19:06:34;;;;;;;79.50;36.70;;;51.30;2227.20;;;;;;4992332;28;20118;-83
2022/03/11 19:09:02;;;;;;;90.60;41.53;;;51.30;2227.20;;;;;;4959244;28;20110;-85
2022/03/11 19:11:28;;;;;;;84.25;39.80;;;51.30;2227.20;;;;;;4958860;28;20054;-83
2022/03/11 19:13:56;;;;;;;101.93;43.72;;;51.20;2227.20;;;;;;4977267;28;20056;-84
2022/03/11 19:16:23;;;;;;;102.97;48.70;;;51.30;2227.20;;;;;;4976371;28;20374;-83
2022/03/11 19:18:49;;;;;;;97.57;47.97;;;51.30;2227.20;;;;;;4991847;28;20023;-82
2022/03/11 19:21:15;;;;;;;51.20;29.70;;;51.30;2227.20;;;;;;5014225;28;20022;-82
2022/03/11 19:23:42;;;;;;;47.40;29.65;;;51.20;2227.20;;;;;;4977168;28;20445;-85
2022/03/11 19:26:10;;;;;;;43.85;25.55;;;26.50;2201.60;;;;;;4992052;28;20026;-80
2022/03/11 19:28:37;;;;;;;30.65;21.50;;;26.50;2201.60;;;;;;4959260;28;20364;-80
2022/03/11 19:31:04;;;;;;;45.88;29.35;;;51.20;2227.20;;;;;;4959092;28;20035;-80
2022/03/11 19:33:34;;;;;;;56.35;33.83;;;51.20;2227.20;;;;;;4959192;28;20034;-83
2022/03/11 19:36:04;;;;;;;34.45;21.05;;;51.20;2227.20;;;;;;4991757;28;20031;-83
2022/03/11 19:38:30;;;;;;;51.85;33.53;;;51.20;2227.20;;;;;;4959190;28;20456;-82
2022/03/11 19:41:00;;;;;;;80.13;43.72;;;51.20;2227.20;;;;;;4991703;28;20074;-83
2022/03/11 19:43:27;;;;;;;62.40;36.25;;;26.50;2201.60;;;;;;4959395;28;20034;-82
2022/03/11 19:45:53;;;;;;;76.93;44.10;;;26.50;2201.60;;;;;;4959309;28;20029;-83
2022/03/11 19:48:20;;;;;;;49.75;29.52;;;26.40;2201.60;;;;;;4959280;28;20045;-83
2022/03/11 19:50:47;;;;;;;42.47;26.08;;;26.40;2201.60;;;;;;4958992;28;20031;-86